Time;durP1;ratioP1;P1;durP2;ratioP2;P2;SDS_P1;SDS_P2;PMS_P1;PMS_P2;Temp;Humidity;BMP_temperature;BMP_pressure;BME280_temperature;BME280_humidity;BME280_pressure;Samples;Min_cycle;Max_cycle;Signal;HPM_P1;HPM_P2
2023/08/10 00:01:40;;;;;;;4.30;2.70;;;;;;;-141.97;58.99;47434.50;5052033;28;20684;-83
2023/08/10 00:04:05;;;;;;;3.50;2.63;;;;;;;-141.97;58.78;47355.72;5067080;28;20232;-83
2023/08/10 00:06:31;;;;;;;3.37;2.33;;;;;;;-141.97;58.70;47532.53;5051650;28;20177;-83
2023/08/10 00:08:56;;;;;;;3.20;2.60;;;;;;;-141.97;58.43;47307.66;5054902;28;20169;-83
2023/08/10 00:11:22;;;;;;;3.77;2.57;;;;;;;-141.97;58.67;47371.09;5067265;28;20220;-83
2023/08/10 00:13:47;;;;;;;3.53;2.80;;;;;;;-141.97;59.24;47582.50;5083242;28;20597;-83
2023/08/10 00:16:12;;;;;;;3.73;2.63;;;;;;;-141.97;59.54;47384.53;5051568;28;20180;-83
2023/08/10 00:18:39;;;;;;;3.40;2.60;;;;;;;-141.97;59.09;47605.56;5050777;28;20166;-83
2023/08/10 00:21:05;;;;;;;4.17;2.87;;;;;;;-141.97;59.48;47461.41;5051361;28;20245;-82
2023/08/10 00:23:31;;;;;;;3.50;2.60;;;;;;;-141.97;59.26;47622.88;5051749;28;20157;-82
2023/08/10 00:25:56;;;;;;;3.10;2.80;;;;;;;-141.97;59.30;47328.81;5052409;28;20184;-83
2023/08/10 00:28:21;;;;;;;3.57;2.90;;;;;;;-141.97;59.89;47303.81;5068662;28;20267;-82
2023/08/10 00:30:47;;;;;;;3.53;2.80;;;;;;;-141.97;59.31;47544.06;5068116;28;20177;-82
2023/08/10 00:33:12;;;;;;;3.07;2.73;;;;;;;-141.97;59.37;47396.06;5051213;28;20177;-82
2023/08/10 00:35:38;;;;;;;4.23;2.90;;;;;;;-141.97;59.40;47407.59;5050990;28;20240;-82
2023/08/10 00:38:04;;;;;;;3.10;2.80;;;;;;;-141.97;59.48;47250.00;5050162;28;20228;-82
2023/08/10 00:40:29;;;;;;;4.97;2.90;;;;;;;-141.97;59.48;47392.22;5050595;28;20173;-82
2023/08/10 00:42:58;;;;;;;4.57;2.90;;;;;;;-141.97;59.42;47313.44;5050603;28;20170;-82
2023/08/10 00:45:23;;;;;;;3.73;3.10;;;;;;;-141.97;59.56;47482.56;5066203;28;20228;-82
2023/08/10 00:47:52;;;;;;;4.03;3.20;;;;;;;-141.97;59.54;47415.28;5033396;28;20169;-83
2023/08/10 00:50:17;;;;;;;4.27;3.30;;;;;;;-141.97;59.66;47332.66;5066798;28;20224;-83
2023/08/10 00:52:43;;;;;;;4.03;3.10;;;;;;;-141.97;60.19;47449.88;5034280;28;20514;-83
2023/08/10 00:55:08;;;;;;;4.10;2.90;;;;;;;-141.97;59.62;47428.75;5033981;28;20173;-83
2023/08/10 00:57:34;;;;;;;3.73;3.00;;;;;;;-141.97;59.42;47451.81;5016670;28;20220;-83
2023/08/10 01:00:00;;;;;;;4.07;3.00;;;;;;;-141.97;59.37;47428.75;5052861;28;20199;-82
2023/08/10 01:02:25;;;;;;;4.83;3.20;;;;;;;-141.97;59.25;47570.97;5053710;28;20188;-82
2023/08/10 01:04:50;;;;;;;6.10;3.17;;;;;;;-141.97;59.48;47326.88;5054623;28;20271;-82
2023/08/10 01:07:32;;;;;;;6.10;3.40;;;;;;;-141.97;59.63;47430.66;5039246;28;20606;-82
2023/08/10 01:10:12;;;;;;;4.73;3.10;;;;;;;-141.97;59.53;47457.56;5068730;28;20176;-82
2023/08/10 01:13:17;;;;;;;6.93;3.10;;;;;;;-141.97;59.60;47449.88;5074865;28;20183;-83
2023/08/10 01:15:53;;;;;;;5.50;3.13;;;;;;;-141.97;59.39;47447.97;5069552;28;20172;-82
2023/08/10 01:18:27;;;;;;;5.03;3.10;;;;;;;-141.97;59.35;47459.50;5047726;28;20531;-82
2023/08/10 01:20:58;;;;;;;4.20;2.73;;;;;;;-141.97;59.03;47373.00;5091485;28;20591;-82
2023/08/10 01:23:31;;;;;;;4.07;2.73;;;;;;;-141.97;59.28;47474.88;5028812;28;20188;-82
2023/08/10 01:25:58;;;;;;;4.77;2.60;;;;;;;-141.97;59.31;47405.69;5049658;28;20640;-82
2023/08/10 01:28:26;;;;;;;3.13;2.80;;;;;;;-141.97;59.28;47426.81;5049675;28;20235;-82
2023/08/10 01:30:51;;;;;;;2.90;2.60;;;;;;;-141.97;59.24;47422.97;5051223;28;20172;-82
2023/08/10 01:33:18;;;;;;;4.20;2.50;;;;;;;-141.97;59.13;47455.66;5054836;28;20169;-82
2023/08/10 01:35:44;;;;;;;2.80;2.27;;;;;;;-141.97;59.40;47315.34;5072974;28;20177;-83
2023/08/10 01:38:10;;;;;;;4.10;2.60;;;;;;;-141.97;59.43;47399.91;5057191;28;20788;-83
2023/08/10 01:40:36;;;;;;;3.17;2.70;;;;;;;-141.97;59.60;47580.59;5071635;28;20188;-82
2023/08/10 01:43:02;;;;;;;3.40;2.50;;;;;;;-141.97;59.77;47613.25;5053344;28;20637;-81
2023/08/10 01:45:29;;;;;;;3.83;2.57;;;;;;;-141.97;59.71;47511.38;5051768;28;20253;-81
2023/08/10 01:47:56;;;;;;;2.97;2.50;;;;;;;-141.97;59.66;47432.59;5073413;28;20218;-82
2023/08/10 01:50:26;;;;;;;4.00;2.70;;;;;;;-141.97;59.71;47426.81;5055404;28;20189;-82
2023/08/10 01:52:56;;;;;;;3.30;2.40;;;;;;;-141.97;59.82;47446.03;5042911;28;20218;-81
2023/08/10 01:55:22;;;;;;;4.00;2.80;;;;;;;-141.97;59.80;47447.97;5054181;28;20196;-82
2023/08/10 01:57:47;;;;;;;3.30;2.60;;;;;;;-141.97;59.62;47446.03;5045991;28;20241;-81
2023/08/10 02:00:13;;;;;;;3.87;2.60;;;;;;;-141.97;59.68;47392.22;5053022;28;20185;-81
2023/08/10 02:02:39;;;;;;;5.23;2.70;;;;;;;-141.97;60.32;47415.28;5065315;28;20294;-81
2023/08/10 02:05:05;;;;;;;3.33;2.53;;;;;;;-141.97;60.84;47409.53;5073161;28;20157;-81
2023/08/10 02:07:31;;;;;;;2.73;2.50;;;;;;;-141.97;60.81;47426.81;5072885;28;20676;-81
2023/08/10 02:09:57;;;;;;;3.47;2.63;;;;;;;-141.97;60.65;47449.88;5038642;28;20283;-81
2023/08/10 02:12:23;;;;;;;3.60;3.00;;;;;;;-141.97;60.97;47338.41;5061947;28;20230;-82
2023/08/10 02:14:49;;;;;;;4.87;3.27;;;;;;;-141.97;60.82;47496.00;5073167;28;20644;-81
2023/08/10 02:17:15;;;;;;;3.40;2.90;;;;;;;-141.97;60.87;47463.34;5073032;28;20184;-81
2023/08/10 02:19:41;;;;;;;4.00;3.10;;;;;;;-141.97;60.99;47611.34;5054767;28;20176;-81
2023/08/10 02:22:06;;;;;;;4.40;3.30;;;;;;;-141.97;60.75;47430.66;5058301;28;20296;-82
2023/08/10 02:24:32;;;;;;;8.90;3.73;;;;;;;-141.97;61.67;47461.41;5061637;28;20267;-81
2023/08/10 02:26:57;;;;;;;4.77;3.30;;;;;;;-141.97;61.67;47499.84;5072488;28;20161;-82
2023/08/10 02:29:23;;;;;;;4.30;3.37;;;;;;;-141.97;61.78;47419.13;5061866;28;20566;-82
2023/08/10 02:31:48;;;;;;;5.10;3.00;;;;;;;-141.97;61.97;47465.25;5036088;28;20180;-81
2023/08/10 02:34:13;;;;;;;5.33;2.97;;;;;;;-141.97;62.43;47567.13;5065846;28;20172;-79
2023/08/10 02:36:39;;;;;;;5.23;3.40;;;;;;;-141.97;62.17;47447.97;5093054;28;20200;-80
2023/08/10 02:39:05;;;;;;;3.37;3.07;;;;;;;-141.97;62.30;47469.09;5075425;28;20297;-82
2023/08/10 02:41:31;;;;;;;5.10;2.97;;;;;;;-141.97;62.31;47430.66;5061100;28;20234;-82
2023/08/10 02:43:56;;;;;;;4.30;3.20;;;;;;;-141.97;62.64;47436.44;5055677;28;20176;-82
2023/08/10 02:46:22;;;;;;;4.13;2.97;;;;;;;-141.97;62.55;47624.78;5072632;28;20602;-82
2023/08/10 02:48:47;;;;;;;5.47;2.97;;;;;;;-141.97;62.77;47374.94;5072406;28;20259;-82
2023/08/10 02:51:12;;;;;;;3.20;2.87;;;;;;;-141.97;62.67;47324.97;5072634;28;20241;-82
2023/08/10 02:53:38;;;;;;;5.73;2.93;;;;;;;-141.97;62.63;47609.41;5072344;28;20165;-82
2023/08/10 02:56:03;;;;;;;4.50;3.00;;;;;;;-141.97;62.84;47444.13;5062303;28;20185;-82
2023/08/10 02:58:29;;;;;;;3.37;2.97;;;;;;;-141.97;63.03;47373.00;5046551;28;20229;-82
2023/08/10 03:00:55;;;;;;;4.93;3.30;;;;;;;-141.97;63.00;47478.72;5053525;28;20687;-82
2023/08/10 03:03:21;;;;;;;3.40;3.00;;;;;;;-141.97;62.99;47447.97;5035893;28;20208;-82
2023/08/10 03:05:46;;;;;;;4.77;3.23;;;;;;;-141.97;63.07;47342.25;5052466;28;20618;-82
2023/08/10 03:08:12;;;;;;;4.37;3.60;;;;;;;-141.97;63.16;47611.34;5075813;28;20191;-82
2023/08/10 03:10:37;;;;;;;6.60;3.10;;;;;;;-141.97;63.36;47501.78;5071744;28;20192;-82
2023/08/10 03:13:04;;;;;;;3.57;3.10;;;;;;;-141.97;63.67;47338.41;5053519;28;20268;-82
2023/08/10 03:15:30;;;;;;;5.27;3.10;;;;;;;-141.97;63.62;47376.84;5058801;28;20173;-82
2023/08/10 03:17:56;;;;;;;4.17;3.07;;;;;;;-141.97;63.53;47572.91;5057829;28;20554;-81
2023/08/10 03:20:21;;;;;;;4.63;2.83;;;;;;;-141.97;63.50;47453.72;5071495;28;20185;-83
2023/08/10 03:22:47;;;;;;;3.90;2.90;;;;;;;-141.97;63.47;47374.94;5053763;28;20180;-82
2023/08/10 03:25:14;;;;;;;6.40;3.13;;;;;;;-141.97;63.90;47451.81;5072050;28;20183;-81
2023/08/10 03:27:40;;;;;;;5.23;3.00;;;;;;;-141.97;64.17;47430.66;5071725;28;20202;-81
2023/08/10 03:30:06;;;;;;;6.90;3.10;;;;;;;-141.97;63.91;47446.03;5071726;28;20165;-81
2023/08/10 03:32:32;;;;;;;4.20;3.30;;;;;;;-141.97;63.73;47388.38;5073354;28;20176;-83
2023/08/10 03:34:57;;;;;;;3.77;2.90;;;;;;;-141.97;63.48;47463.34;5077294;28;20173;-82
2023/08/10 03:37:23;;;;;;;5.73;3.00;;;;;;;-141.97;63.41;47457.56;5077130;28;20188;-82
2023/08/10 03:39:48;;;;;;;6.17;3.10;;;;;;;-141.97;63.62;47467.19;5077707;28;20231;-83
2023/08/10 03:42:14;;;;;;;5.97;3.10;;;;;;;-141.97;63.42;47438.34;5076303;28;20157;-82
2023/08/10 03:44:39;;;;;;;4.87;3.13;;;;;;;-141.97;63.64;47446.03;5074623;28;20498;-83
2023/08/10 03:47:04;;;;;;;6.93;3.70;;;;;;;-141.97;64.25;47447.97;5057271;28;20204;-84
2023/08/10 03:49:30;;;;;;;20.13;4.93;;;;;;;-141.97;64.12;47484.47;5068083;28;20275;-83
2023/08/10 03:51:55;;;;;;;22.80;5.60;;;;;;;-141.97;64.11;47376.84;5057568;28;20641;-83
2023/08/10 03:54:21;;;;;;;19.80;5.60;;;;;;;-141.97;64.74;47403.75;5070295;28;20180;-82
2023/08/10 03:56:47;;;;;;;14.93;5.77;;;;;;;-141.97;64.38;47467.19;5052043;28;20205;-82
2023/08/10 03:59:13;;;;;;;13.57;5.80;;;;;;;-141.97;64.39;47428.75;5054312;28;20224;-83
2023/08/10 04:01:39;;;;;;;20.17;6.07;;;;;;;-141.97;63.97;47422.97;5072439;28;20165;-82
2023/08/10 04:04:04;;;;;;;16.67;5.87;;;;;;;-141.97;64.01;47461.41;5088565;28;20172;-82
2023/08/10 04:06:30;;;;;;;17.43;6.20;;;;;;;-141.97;64.46;47488.31;5059762;28;20173;-82
2023/08/10 04:08:55;;;;;;;13.17;5.10;;;;;;;-141.97;64.48;47472.94;5051586;28;20177;-82
2023/08/10 04:11:21;;;;;;;10.30;5.20;;;;;;;-141.97;64.43;47476.78;5042864;28;20182;-82
2023/08/10 04:13:46;;;;;;;22.60;6.27;;;;;;;-141.97;64.29;47665.16;5068192;28;20200;-81
2023/08/10 04:16:12;;;;;;;14.20;5.33;;;;;;;-141.97;63.50;47472.94;5071102;28;20230;-81
2023/08/10 04:18:38;;;;;;;26.63;5.90;;;;;;;-141.97;63.41;47461.41;5070830;28;20562;-81
2023/08/10 04:21:03;;;;;;;15.07;6.10;;;;;;;-141.97;63.49;47461.41;5046437;28;20181;-81
2023/08/10 04:23:29;;;;;;;16.27;6.40;;;;;;;-141.97;62.63;47463.34;5050016;28;20204;-81
2023/08/10 04:25:54;;;;;;;17.47;6.67;;;;;;;-141.97;63.92;47484.47;5050883;28;20240;-81
2023/08/10 04:28:20;;;;;;;13.40;5.30;;;;;;;-141.97;64.55;47444.13;5051940;28;20227;-83
2023/08/10 04:30:45;;;;;;;12.47;5.07;;;;;;;-141.97;65.17;47346.09;5037446;28;20193;-83
2023/08/10 04:33:10;;;;;;;9.07;4.70;;;;;;;-141.97;64.44;47480.63;5054804;28;20547;-83
2023/08/10 04:35:36;;;;;;;11.30;4.80;;;;;;;-141.97;63.44;47465.25;5052853;28;20177;-83
2023/08/10 04:38:01;;;;;;;9.47;4.30;;;;;;;-141.97;62.83;47273.06;5051963;28;20252;-83
2023/08/10 04:40:27;;;;;;;7.83;4.03;;;;;;;-141.97;62.61;47446.03;5051153;28;20177;-82
2023/08/10 04:42:52;;;;;;;9.50;4.27;;;;;;;-141.97;62.28;47478.72;5050688;28;20169;-82
2023/08/10 04:45:18;;;;;;;11.30;4.77;;;;;;;-141.97;61.37;47665.16;5051169;28;20562;-83
2023/08/10 04:47:44;;;;;;;10.93;4.20;;;;;;;-141.97;60.29;47430.66;5070664;28;20153;-83
2023/08/10 04:50:11;;;;;;;10.80;4.40;;;;;;;-141.97;60.07;47482.56;5071716;28;20168;-82
2023/08/10 04:52:37;;;;;;;9.97;4.07;;;;;;;-141.97;59.20;47436.44;5065136;28;20204;-83
2023/08/10 04:55:03;;;;;;;8.93;4.63;;;;;;;-141.97;57.12;47382.63;5046990;28;20338;-84
2023/08/10 04:57:29;;;;;;;6.33;3.73;;;;;;;-141.97;56.59;47432.59;5075449;28;20189;-86
2023/08/10 04:59:54;;;;;;;4.13;3.17;;;;;;;-141.97;56.01;47446.03;5063220;28;20257;-82
2023/08/10 05:02:20;;;;;;;6.20;3.20;;;;;;;-141.97;55.30;47388.38;5045571;28;20189;-83
2023/08/10 05:04:45;;;;;;;6.97;3.37;;;;;;;-141.97;55.51;47611.34;5052431;28;20168;-83
2023/08/10 05:07:10;;;;;;;4.67;3.03;;;;;;;-141.97;55.10;47471.03;5052969;28;20160;-83
2023/08/10 05:09:37;;;;;;;6.90;3.43;;;;;;;-141.97;54.80;47444.13;5045456;28;20181;-82
2023/08/10 05:12:03;;;;;;;4.73;3.20;;;;;;;-141.97;54.23;47324.97;5049957;28;20272;-84
2023/08/10 05:14:29;;;;;;;5.53;3.47;;;;;;;-141.97;54.92;47484.47;5052309;28;20229;-83
2023/08/10 05:16:54;;;;;;;4.53;3.33;;;;;;;-141.97;55.21;47486.41;5052107;28;20223;-83
2023/08/10 05:19:20;;;;;;;5.20;3.30;;;;;;;-141.97;54.38;47476.78;5052263;28;20191;-83
2023/08/10 05:21:45;;;;;;;6.77;3.47;;;;;;;-141.97;55.32;47363.41;5050934;28;20185;-82
2023/08/10 05:24:10;;;;;;;5.70;3.60;;;;;;;-141.97;55.58;47415.28;5070049;28;20263;-83
2023/08/10 05:26:36;;;;;;;4.50;3.40;;;;;;;-141.97;55.40;47288.44;5069963;28;20561;-83
2023/08/10 05:29:01;;;;;;;5.63;4.00;;;;;;;-141.97;54.49;47398.00;5052040;28;20168;-82
2023/08/10 05:31:27;;;;;;;8.27;4.70;;;;;;;-141.97;54.44;47288.44;5085104;28;20168;-82
2023/08/10 05:33:52;;;;;;;7.20;3.83;;;;;;;-141.97;54.62;47517.16;5069928;28;20165;-83
2023/08/10 05:36:17;;;;;;;8.30;3.40;;;;;;;-141.97;53.81;47338.41;5036823;28;20197;-83
2023/08/10 05:38:43;;;;;;;4.37;3.50;;;;;;;-141.97;53.02;47338.41;5031669;28;20252;-83
2023/08/10 05:41:08;;;;;;;5.70;3.63;;;;;;;-141.97;51.75;47346.09;5031427;28;20164;-82
2023/08/10 05:43:34;;;;;;;5.07;3.60;;;;;;;-141.97;51.93;47365.31;5065025;28;20264;-82
2023/08/10 05:45:59;;;;;;;4.87;3.77;;;;;;;-141.97;51.78;47422.97;5049839;28;20181;-82
2023/08/10 05:48:25;;;;;;;4.03;3.30;;;;;;;-141.97;52.73;47440.28;5049578;28;20165;-82
2023/08/10 05:50:50;;;;;;;7.70;3.80;;;;;;;-141.97;53.31;47374.94;5031718;28;20239;-81
2023/08/10 05:53:16;;;;;;;4.40;3.70;;;;;;;-141.97;53.47;47332.66;5053001;28;20289;-82
2023/08/10 05:55:42;;;;;;;6.37;3.47;;;;;;;-141.97;54.22;47265.38;5069621;28;20185;-82
2023/08/10 05:58:08;;;;;;;4.40;3.40;;;;;;;-141.97;54.90;47634.41;5040934;28;20303;-82
2023/08/10 06:00:33;;;;;;;5.40;3.50;;;;;;;-141.97;55.44;47449.88;5051734;28;20173;-82
2023/08/10 06:02:58;;;;;;;5.43;3.90;;;;;;;-141.97;56.36;47326.88;5069211;28;20160;-83
2023/08/10 06:05:24;;;;;;;4.47;3.70;;;;;;;-141.97;56.17;47361.47;5068695;28;20252;-83
2023/08/10 06:07:49;;;;;;;7.00;4.20;;;;;;;-141.97;55.67;47255.78;5068371;28;20164;-82
2023/08/10 06:10:16;;;;;;;6.80;5.10;;;;;;;-141.97;55.52;47484.47;5071690;28;20172;-83
2023/08/10 06:12:42;;;;;;;9.20;5.57;;;;;;;-141.97;55.76;47636.31;5070733;28;20550;-81
2023/08/10 06:15:09;;;;;;;7.50;5.00;;;;;;;-141.97;56.62;47461.41;5050424;28;20168;-83
2023/08/10 06:17:36;;;;;;;6.43;4.90;;;;;;;-141.97;56.62;47465.25;5072270;28;20200;-83
2023/08/10 06:20:09;;;;;;;8.20;4.90;;;;;;;-141.97;56.15;47411.44;5073926;28;20244;-85
2023/08/10 06:22:38;;;;;;;5.93;4.40;;;;;;;-141.97;55.46;47438.34;5054952;28;20665;-85
2023/08/10 06:25:04;;;;;;;10.70;4.30;;;;;;;-141.97;55.46;47401.84;5054878;28;20269;-83
2023/08/10 06:27:31;;;;;;;5.13;4.27;;;;;;;-141.97;55.30;47534.44;5073377;28;20173;-82
2023/08/10 06:29:57;;;;;;;7.13;4.27;;;;;;;-141.97;55.22;47478.72;5072575;28;20180;-82
2023/08/10 06:32:22;;;;;;;9.13;4.27;;;;;;;-141.97;55.55;47299.97;5054349;28;20172;-83
2023/08/10 06:34:48;;;;;;;5.50;4.00;;;;;;;-141.97;55.70;47461.41;5070271;28;20280;-83
2023/08/10 06:37:15;;;;;;;6.77;4.30;;;;;;;-141.97;56.16;47472.94;5039409;28;20201;-83
2023/08/10 06:39:41;;;;;;;5.77;4.10;;;;;;;-141.97;55.62;47463.34;5059865;28;20221;-82
2023/08/10 06:42:06;;;;;;;4.93;3.80;;;;;;;-141.97;54.57;47380.69;5061859;28;20187;-83
2023/08/10 06:44:32;;;;;;;4.20;3.57;;;;;;;-141.97;53.56;47438.34;5044357;28;20251;-83
2023/08/10 06:46:57;;;;;;;4.83;4.00;;;;;;;-141.97;52.63;47422.97;5034318;28;20245;-83
2023/08/10 06:49:23;;;;;;;4.60;3.90;;;;;;;-141.97;51.98;47463.34;5033670;28;20174;-82
2023/08/10 06:51:50;;;;;;;5.13;3.50;;;;;;;-141.97;51.25;47645.94;5032220;28;20189;-79
2023/08/10 06:54:15;;;;;;;6.13;3.80;;;;;;;-141.97;50.89;47434.50;5040941;28;20178;-79
2023/08/10 06:56:41;;;;;;;6.40;3.80;;;;;;;-141.97;50.87;47465.25;5051594;28;20172;-80
2023/08/10 06:59:07;;;;;;;4.30;3.67;;;;;;;-141.97;50.42;47438.34;5042228;28;20267;-79
2023/08/10 07:01:35;;;;;;;5.83;3.50;;;;;;;-141.97;49.93;47447.97;5033928;28;20559;-79
2023/08/10 07:04:00;;;;;;;4.30;3.50;;;;;;;-141.97;49.52;47405.69;5040852;28;20288;-78
2023/08/10 07:06:27;;;;;;;7.33;3.80;;;;;;;-141.97;49.83;47453.72;5051075;28;20184;-79
2023/08/10 07:08:53;;;;;;;4.37;3.60;;;;;;;-141.97;49.50;47413.38;5066453;28;20197;-77
2023/08/10 07:11:20;;;;;;;7.63;3.60;;;;;;;-141.97;48.09;47628.63;5051985;28;20207;-80
2023/08/10 07:13:46;;;;;;;5.40;3.70;;;;;;;-141.97;48.51;47415.28;5051119;28;20172;-80
2023/08/10 07:16:12;;;;;;;5.63;3.40;;;;;;;-141.97;48.05;47465.25;5051320;28;20184;-79
2023/08/10 07:18:38;;;;;;;4.20;3.10;;;;;;;-141.97;48.29;47432.59;5051494;28;20193;-78
2023/08/10 07:21:04;;;;;;;4.23;3.20;;;;;;;-141.97;48.42;47419.13;5052962;28;20173;-78
2023/08/10 07:23:32;;;;;;;3.27;2.93;;;;;;;-141.97;48.63;47449.88;5066231;28;20221;-80
2023/08/10 07:25:58;;;;;;;3.80;3.40;;;;;;;-141.97;49.78;47411.44;5079599;28;20212;-79
2023/08/10 07:28:23;;;;;;;6.40;3.20;;;;;;;-141.97;50.49;47461.41;5064859;28;20630;-79
2023/08/10 07:30:53;;;;;;;3.83;2.50;;;;;;;-141.97;50.81;47388.38;5032634;28;20622;-79
2023/08/10 07:33:19;;;;;;;2.50;2.30;;;;;;;-141.97;52.23;47430.66;5030896;28;20193;-80
2023/08/10 07:35:45;;;;;;;5.53;2.63;;;;;;;-141.97;53.09;47411.44;5042206;28;20197;-79
2023/08/10 07:38:14;;;;;;;6.03;2.27;;;;;;;-141.97;53.66;47421.06;5042945;28;20230;-80
2023/08/10 07:40:40;;;;;;;2.80;2.30;;;;;;;-141.97;53.63;47449.88;5044993;28;20209;-80
2023/08/10 07:43:05;;;;;;;3.50;2.27;;;;;;;-141.97;52.95;47355.72;5050699;28;20169;-79
2023/08/10 07:45:31;;;;;;;4.57;2.40;;;;;;;-141.97;52.66;47472.94;5048535;28;20264;-79
2023/08/10 07:47:56;;;;;;;6.03;2.80;;;;;;;-141.97;53.73;47446.03;5030511;28;20340;-80
2023/08/10 07:50:22;;;;;;;2.80;2.40;;;;;;;-141.97;53.43;47465.25;5030100;28;20170;-80
2023/08/10 07:52:47;;;;;;;2.97;2.40;;;;;;;-141.97;52.52;47436.44;5030604;28;20170;-80
2023/08/10 07:55:13;;;;;;;3.97;2.53;;;;;;;-141.97;52.49;47476.78;5030318;28;20178;-79
2023/08/10 07:57:39;;;;;;;3.30;2.47;;;;;;;-141.97;53.21;47446.03;5030593;28;20193;-81
2023/08/10 08:00:06;;;;;;;4.10;2.50;;;;;;;-141.97;52.61;47419.13;5019916;28;20236;-79
2023/08/10 08:02:32;;;;;;;3.30;2.50;;;;;;;-141.97;53.45;47480.63;5030415;28;20170;-79
2023/08/10 08:04:58;;;;;;;4.63;2.60;;;;;;;-141.97;54.40;47424.91;5029775;28;20181;-79
2023/08/10 08:07:25;;;;;;;5.07;2.13;;;;;;;-141.97;54.22;47471.03;5030116;28;20221;-79
2023/08/10 08:09:51;;;;;;;4.63;2.67;;;;;;;-141.97;55.72;47440.28;5030562;28;20166;-79
2023/08/10 08:12:16;;;;;;;4.30;2.80;;;;;;;-141.97;55.12;47457.56;5030199;28;20276;-78
2023/08/10 08:14:43;;;;;;;3.60;2.87;;;;;;;-141.97;54.81;47447.97;5029244;28;20289;-79
2023/08/10 08:17:09;;;;;;;3.23;2.60;;;;;;;-141.97;56.45;47449.88;5029644;28;20204;-79
2023/08/10 08:19:36;;;;;;;4.73;2.80;;;;;;;-141.97;57.22;47469.09;5029961;28;20189;-80
2023/08/10 08:22:02;;;;;;;4.20;2.57;;;;;;;-141.97;56.56;47482.56;5030340;28;20177;-79
2023/08/10 08:24:28;;;;;;;3.63;2.83;;;;;;;-141.97;57.04;47461.41;5029573;28;20231;-79
2023/08/10 08:26:54;;;;;;;7.00;3.20;;;;;;;-141.97;56.71;47471.03;5030106;28;20725;-80
2023/08/10 08:29:19;;;;;;;5.03;3.57;;;;;;;-141.97;58.59;47442.19;5030189;28;20224;-78
2023/08/10 08:31:44;;;;;;;5.73;3.60;;;;;;;-141.97;58.83;47476.78;5046298;28;20657;-80
2023/08/10 08:34:10;;;;;;;4.57;3.57;;;;;;;-141.97;59.19;47497.94;5047773;28;20268;-80
2023/08/10 08:36:35;;;;;;;5.53;3.33;;;;;;;-141.97;59.04;47484.47;5029254;28;20635;-81
2023/08/10 08:39:01;;;;;;;7.70;3.50;;;;;;;-141.97;57.82;47457.56;5055697;28;20220;-78
2023/08/10 08:41:33;;;;;;;3.67;3.10;;;;;;;-141.97;57.24;47455.66;5051048;28;20184;-79
2023/08/10 08:43:59;;;;;;;5.10;3.33;;;;;;;-141.97;59.12;47432.59;5074049;28;20189;-79
2023/08/10 08:46:30;;;;;;;4.33;3.20;;;;;;;-141.97;59.00;47457.56;5045001;28;20181;-79
2023/08/10 08:48:56;;;;;;;7.63;3.70;;;;;;;-141.97;62.39;47447.97;5049449;28;20517;-79
2023/08/10 08:51:22;;;;;;;4.57;3.93;;;;;;;-141.97;63.10;47469.09;5049673;28;20157;-79
2023/08/10 08:53:49;;;;;;;3.83;3.43;;;;;;;-141.97;64.31;47499.84;5049168;28;20528;-78
2023/08/10 08:56:14;;;;;;;4.97;3.57;;;;;;;-141.97;66.34;47469.09;5075357;28;20625;-79
2023/08/10 08:58:40;;;;;;;5.10;3.20;;;;;;;-141.97;66.32;47472.94;5059623;28;20248;-79
2023/08/10 09:01:07;;;;;;;6.17;3.77;;;;;;;-141.97;66.93;47472.94;5068879;28;20176;-79
2023/08/10 09:03:33;;;;;;;4.73;3.90;;;;;;;-141.97;65.60;47482.56;5069239;28;20168;-79
2023/08/10 09:06:00;;;;;;;6.47;4.40;;;;;;;-141.97;64.62;47438.34;5068692;28;20191;-79
2023/08/10 09:08:26;;;;;;;5.03;3.50;;;;;;;-141.97;66.86;47499.84;5068260;28;20180;-80
2023/08/10 09:10:52;;;;;;;4.20;3.20;;;;;;;-141.97;67.43;47453.72;5069190;28;20169;-80
2023/08/10 09:13:22;;;;;;;5.80;4.23;;;;;;;-141.97;67.43;47446.03;5069369;28;20168;-80
2023/08/10 09:16:05;;;;;;;6.17;4.40;;;;;;;-141.97;67.20;47501.78;5069478;28;20612;-79
2023/08/10 09:18:33;;;;;;;6.23;4.27;;;;;;;-141.97;67.64;47472.94;5069346;28;20195;-79
2023/08/10 09:21:18;;;;;;;8.27;4.23;;;;;;;-141.97;66.63;47463.34;5069554;28;20183;-79
2023/08/10 09:23:52;;;;;;;7.67;3.97;;;;;;;-141.97;65.29;47494.09;5069355;28;20167;-80
2023/08/10 09:26:19;;;;;;;6.00;4.00;;;;;;;-141.97;63.36;47469.09;5084515;28;20211;-78
2023/08/10 09:28:46;;;;;;;4.53;3.00;;;;;;;-141.97;63.53;47503.69;5069362;28;20180;-78
2023/08/10 09:31:11;;;;;;;3.90;2.73;;;;;;;-141.97;62.95;47497.94;5069845;28;20200;-78
2023/08/10 09:33:38;;;;;;;7.10;3.70;;;;;;;-141.97;63.26;47480.63;5050748;28;20173;-79
2023/08/10 09:36:05;;;;;;;5.63;3.50;;;;;;;-141.97;61.51;47465.25;5068633;28;20228;-80
2023/08/10 09:38:31;;;;;;;4.17;2.93;;;;;;;-141.97;62.80;47476.78;5068342;28;20223;-79
2023/08/10 09:41:10;;;;;;;9.13;3.83;;;;;;;-141.97;62.31;47474.88;5069013;28;20157;-79
2023/08/10 09:43:40;;;;;;;5.57;3.50;;;;;;;-141.97;60.99;47497.94;5069341;28;20224;-79
2023/08/10 09:46:06;;;;;;;3.07;2.60;;;;;;;-141.97;58.86;47478.72;5065232;28;20184;-79
2023/08/10 09:48:40;;;;;;;3.20;2.80;;;;;;;-141.97;58.09;47453.72;5069827;28;20153;-79
2023/08/10 09:51:07;;;;;;;4.53;2.80;;;;;;;-141.97;58.01;47461.41;5053824;28;20602;-79
2023/08/10 09:53:33;;;;;;;6.03;3.23;;;;;;;-141.97;58.75;47492.16;5051831;28;20185;-79
2023/08/10 09:56:00;;;;;;;4.37;2.90;;;;;;;-141.97;59.51;47482.56;5053690;28;20174;-79
2023/08/10 09:58:26;;;;;;;5.50;3.13;;;;;;;-141.97;61.01;47446.03;5066914;28;20212;-79
2023/08/10 10:00:52;;;;;;;3.37;2.80;;;;;;;-141.97;61.71;47492.16;5072970;28;20219;-79
2023/08/10 10:03:19;;;;;;;4.50;2.70;;;;;;;-141.97;61.36;47484.47;5072768;28;20227;-79
2023/08/10 10:05:45;;;;;;;4.20;2.70;;;;;;;-141.97;59.98;47480.63;5066968;28;20562;-80
2023/08/10 10:08:12;;;;;;;3.60;2.80;;;;;;;-141.97;60.94;47497.94;5052596;28;20196;-79
2023/08/10 10:10:41;;;;;;;4.73;2.90;;;;;;;-141.97;61.32;47469.09;5053370;28;20169;-79
2023/08/10 10:13:15;;;;;;;6.63;3.80;;;;;;;-141.97;62.48;47501.78;5052878;28;20169;-79
2023/08/10 10:15:44;;;;;;;4.20;3.30;;;;;;;-141.97;63.11;47457.56;5053512;28;20189;-80
2023/08/10 10:18:11;;;;;;;4.37;2.87;;;;;;;-141.97;63.74;47517.16;5057611;28;20208;-80
2023/08/10 10:20:42;;;;;;;4.67;2.83;;;;;;;-141.97;63.27;47488.31;5075167;28;20211;-79
2023/08/10 10:23:16;;;;;;;4.97;3.60;;;;;;;-141.97;61.42;47484.47;5072471;28;20172;-79
2023/08/10 10:25:59;;;;;;;8.13;3.30;;;;;;;-141.97;60.56;47488.31;5071731;28;20183;-79
2023/08/10 10:28:27;;;;;;;4.67;3.40;;;;;;;-141.97;61.90;47503.69;5071532;28;20185;-79
2023/08/10 10:31:05;;;;;;;3.43;2.90;;;;;;;-141.97;61.87;47530.59;5072524;28;20165;-79
2023/08/10 10:33:32;;;;;;;5.80;3.83;;;;;;;-141.97;62.52;47611.34;5072558;28;20165;-79
2023/08/10 10:36:07;;;;;;;9.00;4.30;;;;;;;-141.97;61.49;47507.53;5054194;28;20196;-79
2023/08/10 10:38:33;;;;;;;4.87;3.60;;;;;;;-141.97;59.65;47467.19;5052872;28;20719;-79
2023/08/10 10:41:15;;;;;;;4.60;3.30;;;;;;;-141.97;59.66;47469.09;5071265;28;20248;-79
2023/08/10 10:43:44;;;;;;;6.63;4.50;;;;;;;-141.97;61.68;47482.56;5070952;28;20168;-79
2023/08/10 10:46:31;;;;;;;9.30;5.10;;;;;;;-141.97;62.58;47507.53;5063651;28;20185;-79
2023/08/10 10:48:57;;;;;;;7.40;4.17;;;;;;;-141.97;62.87;47496.00;5030998;28;20228;-79
2023/08/10 10:51:23;;;;;;;5.33;3.70;;;;;;;-141.97;61.84;47496.00;5030369;28;20185;-79
2023/08/10 10:53:53;;;;;;;4.70;3.30;;;;;;;-141.97;63.20;47488.31;5030163;28;20182;-79
2023/08/10 10:56:19;;;;;;;4.80;3.93;;;;;;;-141.97;66.06;47476.78;5031110;28;20236;-79
2023/08/10 10:58:45;;;;;;;6.20;3.70;;;;;;;-141.97;65.77;47494.09;5060361;28;20232;-79
2023/08/10 11:01:11;;;;;;;5.93;3.63;;;;;;;-141.97;65.15;47453.72;5070299;28;20242;-78
2023/08/10 11:03:40;;;;;;;4.30;3.60;;;;;;;-141.97;64.78;47486.41;5069933;28;20267;-79
2023/08/10 11:06:13;;;;;;;8.33;4.17;;;;;;;-141.97;64.77;47461.41;5070112;28;20192;-78
2023/08/10 11:08:39;;;;;;;5.47;3.63;;;;;;;-141.97;66.04;47474.88;5069912;28;20176;-78
2023/08/10 11:11:05;;;;;;;5.53;3.43;;;;;;;-141.97;66.14;47509.47;5070117;28;20172;-78
2023/08/10 11:13:31;;;;;;;4.83;3.40;;;;;;;-141.97;65.38;47496.00;5070397;28;20175;-79
2023/08/10 11:15:56;;;;;;;7.07;3.50;;;;;;;-141.97;64.90;47503.69;5052396;28;20268;-79